Battle Point — NMBY — position and weather

sailwx.info

Track history (hours):
 
Tides and Currents Weather Stations Pressure Air Temp Water Temp Dewpoint Dewpoint Depression Visibility Wind Speed Wind Dir Waves Ship Positions

Battle Point

Last reported at 2014-Aug-30 01:33 UTC. Time now 2014-Sep-01 21:29 UTC.
Position N 47°46' W 122°43'.

Length 57 m; draft 3.2 m.

MMSI: 369970254.

Date/timePositionNaut miles runAvg speedWind from/ knotsBaromVisibWave heightAir tempDewpointWater temp
2014-Aug-30 01:33N 47°46' W 122°43'9 8.7
2014-Aug-30 00:33N 47°53' W 122°36'2110.4
2014-Aug-29 22:32N 48°12' W 122°50'1211.6
2014-Aug-29 21:28N 48°24' W 122°45'1112.3
2014-Aug-29 20:33N 48°35' W 122°45'1110.7
2014-Aug-29 19:33N 48°45' W 122°49'1111.3
2014-Aug-29 18:33N 48°51' W 123°03'1211.7
2014-Aug-29 17:33N 48°59' W 123°17'1111.5
2014-Aug-29 16:33N 49°06' W 123°31'1111.1
2014-Aug-29 15:33N 49°12' W 123°45'1111.2
2014-Aug-29 14:33N 49°15' W 124°01'2 0.1
2014-Aug-28 23:32N 49°17' W 124°02'1 0.5
2014-Aug-28 21:16N 49°19' W 124°01'0 0.1
2014-Aug-28 20:22N 49°19' W 124°01'0 0.1
2014-Aug-28 19:19N 49°19' W 124°01'3 3.7
2014-Aug-28 18:29N 49°20' W 124°06'2 2.3
2014-Aug-28 17:33N 49°18' W 124°04'  
2014-Aug-26 02:14N 49°16' W 124°04'710.5
2014-Aug-26 01:33N 49°15' W 123°53'1010.3
2014-Aug-26 00:33N 49°11' W 123°39'1111.1
2014-Aug-25 23:33N 49°06' W 123°24'1211.8
2014-Aug-25 22:33N 48°58' W 123°10'1110.9
2014-Aug-25 21:33N 48°51' W 122°57'1110.7
2014-Aug-25 20:33N 48°44' W 122°45'10 9.6
2014-Aug-25 19:33N 48°34' W 122°45'10 9.8
2014-Aug-25 18:31N 48°24' W 122°44'9 9.2
2014-Aug-25 17:34N 48°16' W 122°47'1211.8
2014-Aug-25 16:33N 48°05' W 122°39'1212.3
2014-Aug-25 15:33N 47°53' W 122°36'1110.9
2014-Aug-25 14:33N 47°44' W 122°45'  
Track history (hours):
 
Tides and Currents Weather Stations Pressure Air Temp Water Temp Dewpoint Dewpoint Depression Visibility Wind Speed Wind Dir Waves Ship Positions

Battle Point

Last reported at 2014-Aug-30 01:33 UTC. Time now 2014-Sep-01 21:29 UTC.
Position N 47°46' W 122°43'.

Length 57 m; draft 3.2 m.

MMSI: 369970254.

Date/timePositionNaut miles runAvg speedWind from/ knotsBaromVisibWave heightAir tempDewpointWater temp
2014-Aug-30 01:33N 47°46' W 122°43'9 8.7
2014-Aug-30 00:33N 47°53' W 122°36'2110.4
2014-Aug-29 22:32N 48°12' W 122°50'1211.6
2014-Aug-29 21:28N 48°24' W 122°45'1112.3
2014-Aug-29 20:33N 48°35' W 122°45'1110.7
2014-Aug-29 19:33N 48°45' W 122°49'1111.3
2014-Aug-29 18:33N 48°51' W 123°03'1211.7
2014-Aug-29 17:33N 48°59' W 123°17'1111.5
2014-Aug-29 16:33N 49°06' W 123°31'1111.1
2014-Aug-29 15:33N 49°12' W 123°45'1111.2
2014-Aug-29 14:33N 49°15' W 124°01'2 0.1
2014-Aug-28 23:32N 49°17' W 124°02'1 0.5
2014-Aug-28 21:16N 49°19' W 124°01'0 0.1
2014-Aug-28 20:22N 49°19' W 124°01'0 0.1
2014-Aug-28 19:19N 49°19' W 124°01'3 3.7
2014-Aug-28 18:29N 49°20' W 124°06'2 2.3
2014-Aug-28 17:33N 49°18' W 124°04'  
2014-Aug-26 02:14N 49°16' W 124°04'710.5
2014-Aug-26 01:33N 49°15' W 123°53'1010.3
2014-Aug-26 00:33N 49°11' W 123°39'1111.1
2014-Aug-25 23:33N 49°06' W 123°24'1211.8
2014-Aug-25 22:33N 48°58' W 123°10'1110.9
2014-Aug-25 21:33N 48°51' W 122°57'1110.7
2014-Aug-25 20:33N 48°44' W 122°45'10 9.6
2014-Aug-25 19:33N 48°34' W 122°45'10 9.8
2014-Aug-25 18:31N 48°24' W 122°44'9 9.2
2014-Aug-25 17:34N 48°16' W 122°47'1211.8
2014-Aug-25 16:33N 48°05' W 122°39'1212.3
2014-Aug-25 15:33N 47°53' W 122°36'1110.9
2014-Aug-25 14:33N 47°44' W 122°45'  

Dump ship's entire track history